Portscatho, United Kingdom
Current Conditions -  °F | °C
As of 1:50 PM on Friday 24 Oct 2014 (Local Time) from EGDR Reporting Station
Drizzle Drizzle  
Wind Chill: 57°   Ceiling: 700
Heat Index: 57°   Visibility: 2.1mi
Dew Point: 57°   Wind: 9mph
Humidity: 100%   Direction: 270°W
Pressure: 29.94"   Gusts: NA
Location:  50.17°N, 4.97°W
Report Text: EGDR 241250Z 27008KT 3500 -DZ FEW001 SCT003 BKN007 14/14 Q1014 RERA YLO2 TEMPO SCT001 RED
Loading
Personal Weather Stations






























Interactive Weather Map New forecast layout! Learn more

10-Day Weather Forecast

Advertisements
Track Severe Weather on mobile